Time;durP1;ratioP1;P1;durP2;ratioP2;P2;SDS_P1;SDS_P2;PMS_P1;PMS_P2;Temp;Humidity;BMP_temperature;BMP_pressure;BME280_temperature;BME280_humidity;BME280_pressure;Samples;Min_cycle;Max_cycle;Signal;HPM_P1;HPM_P2
2023/12/20 00:00:22;;;;;;;10.35;2.67;;;8.90;70.40;;;;;;5054203;28;20114;-90
2023/12/20 00:02:48;;;;;;;7.82;2.25;;;8.80;70.20;;;;;;5027436;28;20396;-88
2023/12/20 00:05:14;;;;;;;7.82;2.65;;;8.90;70.40;;;;;;5043158;28;20028;-87
2023/12/20 00:07:40;;;;;;;11.85;2.83;;;8.90;70.40;;;;;;5041501;28;20041;-85
2023/12/20 00:10:07;;;;;;;9.48;2.53;;;8.80;70.20;;;;;;5057853;28;20020;-88
2023/12/20 00:12:33;;;;;;;8.32;2.15;;;8.90;70.40;;;;;;5059526;28;20036;-88
2023/12/20 00:14:59;;;;;;;7.75;2.30;;;8.80;70.10;;;;;;5057036;28;20025;-87
2023/12/20 00:17:26;;;;;;;9.82;2.42;;;8.90;70.40;;;;;;5058039;28;20018;-86
2023/12/20 00:19:52;;;;;;;10.35;2.22;;;8.80;70.20;;;;;;5057476;28;20052;-87
2023/12/20 00:22:18;;;;;;;8.23;2.85;;;8.90;70.40;;;;;;5071807;28;20005;-87
2023/12/20 00:24:44;;;;;;;7.43;2.97;;;8.90;70.40;;;;;;5055167;28;20067;-88
2023/12/20 00:27:10;;;;;;;13.35;2.75;;;8.80;70.10;;;;;;5036403;28;20037;-86
2023/12/20 00:29:36;;;;;;;13.05;3.05;;;8.80;70.10;;;;;;5030041;28;20029;-85
2023/12/20 00:32:04;;;;;;;10.13;2.60;;;8.80;70.20;;;;;;5034138;28;20033;-84
2023/12/20 00:34:30;;;;;;;11.38;2.97;;;8.80;70.10;;;;;;5033719;28;20025;-87
2023/12/20 00:36:56;;;;;;;7.55;2.45;;;8.80;70.70;;;;;;5032189;28;20029;-87
2023/12/20 00:39:24;;;;;;;10.35;3.08;;;8.80;70.20;;;;;;5036701;28;20029;-88
2023/12/20 00:41:50;;;;;;;13.02;2.65;;;8.80;70.20;;;;;;5039026;28;20073;-89
2023/12/20 00:44:16;;;;;;;9.30;2.40;;;8.80;70.70;;;;;;5020413;28;20138;-89
2023/12/20 00:46:42;;;;;;;7.63;2.47;;;8.70;70.00;;;;;;5037870;28;20136;-88
2023/12/20 00:49:08;;;;;;;9.43;2.85;;;8.70;70.00;;;;;;5023556;28;20116;-88
2023/12/20 00:51:35;;;;;;;10.82;2.40;;;8.70;70.00;;;;;;5043397;28;20401;-88
2023/12/20 00:54:02;;;;;;;10.43;2.20;;;8.70;70.00;;;;;;5021646;28;20079;-90
2023/12/20 00:56:28;;;;;;;9.50;2.28;;;8.70;70.00;;;;;;5048821;28;20180;-89
2023/12/20 00:58:54;;;;;;;11.82;2.95;;;8.70;70.00;;;;;;5036392;28;20330;-86
2023/12/20 01:01:21;;;;;;;11.32;2.25;;;8.70;70.10;;;;;;5026504;28;20029;-88
2023/12/20 01:03:47;;;;;;;7.65;2.50;;;8.70;70.10;;;;;;5035073;28;20109;-87
2023/12/20 01:06:13;;;;;;;7.95;2.30;;;8.60;69.90;;;;;;5044573;28;20037;-86
2023/12/20 01:08:39;;;;;;;8.00;2.08;;;8.60;70.00;;;;;;5019387;28;20550;-88
2023/12/20 01:11:05;;;;;;;11.45;2.20;;;8.60;70.00;;;;;;5033500;28;20037;-88
2023/12/20 01:13:34;;;;;;;5.32;2.20;;;8.60;70.00;;;;;;5049298;28;20034;-89
2023/12/20 01:16:00;;;;;;;7.50;2.15;;;8.60;70.10;;;;;;5037204;28;20575;-90
2023/12/20 01:18:27;;;;;;;8.48;3.38;;;8.60;70.10;;;;;;5037324;28;20030;-88
2023/12/20 01:20:53;;;;;;;11.07;3.65;;;8.60;70.10;;;;;;5035882;28;20035;-87
2023/12/20 01:23:20;;;;;;;8.00;1.70;;;8.60;70.10;;;;;;5032773;28;20144;-84
2023/12/20 01:25:48;;;;;;;10.88;2.95;;;8.60;70.10;;;;;;5034756;28;20036;-84
2023/12/20 01:28:14;;;;;;;7.95;2.30;;;8.60;70.10;;;;;;5026286;28;20128;-85
2023/12/20 01:30:40;;;;;;;9.07;2.70;;;8.60;70.10;;;;;;5037868;28;20709;-88
2023/12/20 01:33:06;;;;;;;9.55;2.80;;;8.60;70.10;;;;;;5026296;28;20166;-84
2023/12/20 01:35:32;;;;;;;11.90;3.60;;;8.60;70.10;;;;;;5039454;28;20025;-84
2023/12/20 01:37:58;;;;;;;11.25;2.50;;;8.60;70.20;;;;;;5037465;28;20464;-84
2023/12/20 01:40:25;;;;;;;9.75;2.67;;;8.60;70.10;;;;;;5048276;28;20059;-84
2023/12/20 01:43:01;;;;;;;10.93;2.38;;;8.60;70.10;;;;;;5021436;28;20037;-84
2023/12/20 01:45:27;;;;;;;10.68;2.55;;;8.60;70.10;;;;;;5040721;28;20063;-89
2023/12/20 01:47:58;;;;;;;10.75;3.17;;;8.60;70.10;;;;;;5037789;28;20053;-86
2023/12/20 01:50:25;;;;;;;10.60;3.08;;;8.60;70.20;;;;;;5036787;28;20028;-86
2023/12/20 01:52:52;;;;;;;8.57;3.15;;;8.60;70.20;;;;;;5036223;28;20028;-89
2023/12/20 01:55:22;;;;;;;10.15;2.58;;;8.60;70.10;;;;;;5052882;28;20024;-86
2023/12/20 01:57:48;;;;;;;14.82;3.65;;;8.70;70.30;;;;;;5042201;28;20538;-87
2023/12/20 02:00:15;;;;;;;12.55;2.75;;;8.70;70.30;;;;;;5032858;28;20026;-85
2023/12/20 02:02:41;;;;;;;9.38;2.90;;;8.70;70.30;;;;;;5036579;28;20336;-84
2023/12/20 02:05:08;;;;;;;6.55;3.05;;;8.70;70.30;;;;;;5050784;28;20337;-85
2023/12/20 02:07:34;;;;;;;15.13;3.28;;;8.70;70.30;;;;;;5038543;28;20041;-85
2023/12/20 02:10:04;;;;;;;8.50;2.47;;;8.70;70.30;;;;;;5036049;28;20167;-88
2023/12/20 02:12:30;;;;;;;6.88;2.60;;;8.70;70.80;;;;;;5038397;28;20021;-85
2023/12/20 02:14:56;;;;;;;8.05;2.45;;;8.80;70.40;;;;;;5035599;28;20025;-86
2023/12/20 02:17:23;;;;;;;9.07;2.80;;;8.80;70.40;;;;;;5037926;28;20044;-88
2023/12/20 02:19:49;;;;;;;7.80;2.30;;;8.80;70.40;;;;;;5040105;28;20116;-81
2023/12/20 02:22:15;;;;;;;13.65;2.47;;;8.80;70.40;;;;;;5054048;28;20059;-82
2023/12/20 02:24:42;;;;;;;8.48;2.20;;;8.80;70.40;;;;;;5040711;28;20036;-89
2023/12/20 02:27:08;;;;;;;9.02;2.05;;;8.80;70.40;;;;;;5040297;28;20037;-87
2023/12/20 02:29:35;;;;;;;7.78;3.03;;;8.80;70.40;;;;;;5034468;28;20445;-87
2023/12/20 02:32:02;;;;;;;10.02;3.45;;;8.80;70.40;;;;;;5022781;28;20044;-85
2023/12/20 02:34:29;;;;;;;7.28;2.30;;;8.80;70.40;;;;;;5038574;28;20491;-86
2023/12/20 02:36:55;;;;;;;6.25;2.28;;;8.80;70.40;;;;;;5036696;28;20037;-86
2023/12/20 02:39:23;;;;;;;10.77;2.50;;;8.80;70.30;;;;;;5038990;28;20047;-86
2023/12/20 02:41:49;;;;;;;7.90;2.20;;;8.80;70.30;;;;;;5041473;28;20388;-85
2023/12/20 02:44:15;;;;;;;13.55;2.28;;;8.80;70.30;;;;;;5052403;28;20463;-88
2023/12/20 02:46:41;;;;;;;9.32;2.40;;;8.80;70.30;;;;;;5041874;28;20148;-88
2023/12/20 02:49:07;;;;;;;11.98;2.55;;;8.80;70.30;;;;;;5018038;28;20049;-87
2023/12/20 02:51:34;;;;;;;10.52;1.98;;;8.80;70.30;;;;;;5035014;28;20416;-86
2023/12/20 02:54:01;;;;;;;8.13;2.15;;;8.90;70.50;;;;;;5038829;28;20483;-85
2023/12/20 02:56:27;;;;;;;9.63;2.00;;;8.90;70.50;;;;;;5031787;28;20033;-87
2023/12/20 02:58:53;;;;;;;8.15;2.40;;;8.90;70.50;;;;;;5038671;28;20408;-87
2023/12/20 03:01:19;;;;;;;7.28;2.38;;;8.90;70.50;;;;;;5054684;28;20105;-86
2023/12/20 03:03:45;;;;;;;7.00;1.90;;;8.90;70.50;;;;;;5022818;28;20025;-87
2023/12/20 03:06:11;;;;;;;10.40;2.70;;;8.90;70.50;;;;;;5039815;28;20044;-88
2023/12/20 03:08:38;;;;;;;11.55;2.67;;;8.90;70.40;;;;;;5039789;28;20132;-87
2023/12/20 03:11:04;;;;;;;10.80;2.38;;;8.90;70.40;;;;;;5038489;28;20140;-88
2023/12/20 03:13:30;;;;;;;8.68;2.55;;;8.90;70.40;;;;;;5028181;28;20060;-88
2023/12/20 03:15:56;;;;;;;7.95;2.10;;;8.90;70.40;;;;;;5040488;28;20071;-90
2023/12/20 03:18:22;;;;;;;9.80;2.83;;;9.00;70.60;;;;;;5041226;28;20766;-88
2023/12/20 03:20:49;;;;;;;8.13;3.53;;;9.00;70.60;;;;;;5040387;28;20123;-86
2023/12/20 03:23:16;;;;;;;7.93;2.30;;;9.00;70.60;;;;;;5040877;28;20017;-89
2023/12/20 03:25:42;;;;;;;16.50;2.88;;;9.00;70.60;;;;;;5037172;28;20560;-88
2023/12/20 03:28:08;;;;;;;11.07;3.13;;;9.00;70.60;;;;;;5017656;28;20122;-88
2023/12/20 03:30:34;;;;;;;10.05;3.13;;;9.00;70.60;;;;;;5035529;28;20039;-88
2023/12/20 03:33:00;;;;;;;10.00;3.00;;;9.00;70.60;;;;;;5052949;28;20040;-89
2023/12/20 03:35:26;;;;;;;9.55;2.58;;;9.10;70.70;;;;;;5041059;28;20078;-89
2023/12/20 03:37:52;;;;;;;8.68;2.70;;;9.10;70.70;;;;;;5039302;28;20500;-88
2023/12/20 03:40:18;;;;;;;12.82;3.67;;;9.10;70.70;;;;;;5039254;28;20036;-87
2023/12/20 03:42:43;;;;;;;9.77;2.13;;;9.10;70.70;;;;;;5057444;28;20048;-85
2023/12/20 03:45:09;;;;;;;6.53;2.78;;;9.10;70.70;;;;;;5054370;28;20558;-87
2023/12/20 03:47:35;;;;;;;12.15;2.67;;;9.10;70.70;;;;;;5043070;28;20048;-86
2023/12/20 03:50:02;;;;;;;11.32;2.97;;;9.10;70.70;;;;;;5034403;28;20029;-87
2023/12/20 03:52:28;;;;;;;9.95;3.33;;;9.10;70.70;;;;;;5054364;28;20059;-93
2023/12/20 03:54:54;;;;;;;8.32;2.55;;;9.10;70.70;;;;;;5038206;28;20532;-94
2023/12/20 03:57:22;;;;;;;13.15;3.10;;;9.20;70.90;;;;;;5048946;28;20120;-88
2023/12/20 03:59:48;;;;;;;9.73;2.85;;;9.10;70.70;;;;;;5042769;28;20114;-88
2023/12/20 04:02:14;;;;;;;15.98;3.22;;;9.20;70.90;;;;;;5037262;28;20444;-88
2023/12/20 04:04:39;;;;;;;8.77;3.17;;;9.20;70.90;;;;;;5060515;28;20033;-87
2023/12/20 04:07:05;;;;;;;12.93;2.90;;;9.20;70.80;;;;;;5033535;28;20036;-88
2023/12/20 04:09:31;;;;;;;15.25;3.63;;;9.20;70.80;;;;;;5044935;28;20035;-88
2023/12/20 04:11:57;;;;;;;11.10;3.25;;;9.20;70.80;;;;;;5041411;28;20340;-89
2023/12/20 04:14:24;;;;;;;10.98;3.45;;;9.20;70.90;;;;;;5034444;28;20049;-87
2023/12/20 04:16:50;;;;;;;8.30;3.55;;;9.20;70.80;;;;;;5035116;28;20057;-87
2023/12/20 04:19:17;;;;;;;11.23;2.92;;;9.20;70.80;;;;;;5038715;28;20017;-87
2023/12/20 04:21:43;;;;;;;11.13;2.80;;;9.20;70.80;;;;;;5043538;28;20150;-86
2023/12/20 04:24:10;;;;;;;13.32;2.92;;;9.20;70.80;;;;;;5052096;28;20033;-87
2023/12/20 04:26:36;;;;;;;12.38;2.95;;;9.20;70.80;;;;;;5040430;28;20048;-86
2023/12/20 04:29:02;;;;;;;14.77;2.80;;;9.20;70.80;;;;;;5039255;28;21483;-87
2023/12/20 04:31:28;;;;;;;9.20;2.75;;;9.30;71.10;;;;;;5050153;28;20072;-87
2023/12/20 04:33:54;;;;;;;11.43;2.70;;;9.30;71.10;;;;;;5030939;28;20041;-87
2023/12/20 04:36:20;;;;;;;10.20;2.63;;;9.30;71.10;;;;;;5055974;28;20022;-86
2023/12/20 04:38:46;;;;;;;6.82;2.30;;;9.30;71.10;;;;;;5037195;28;20029;-86
2023/12/20 04:41:15;;;;;;;9.98;2.22;;;9.30;71.10;;;;;;5012203;28;20052;-87
2023/12/20 04:43:41;;;;;;;12.43;2.30;;;9.30;71.00;;;;;;5040955;28;20517;-86
2023/12/20 04:46:07;;;;;;;10.80;2.47;;;9.30;71.00;;;;;;5020059;28;20582;-88
2023/12/20 04:48:33;;;;;;;11.60;2.60;;;9.30;71.00;;;;;;5008923;28;20037;-88
2023/12/20 04:50:59;;;;;;;7.00;1.70;;;9.40;71.20;;;;;;5016657;28;20065;-87
2023/12/20 04:53:27;;;;;;;10.32;2.15;;;9.40;71.20;;;;;;5033770;28;20033;-90
2023/12/20 04:55:53;;;;;;;8.10;2.92;;;9.40;71.20;;;;;;5040817;28;20131;-91
2023/12/20 04:58:19;;;;;;;8.85;2.90;;;9.40;71.20;;;;;;5023046;28;20112;-88
2023/12/20 05:00:45;;;;;;;14.80;3.28;;;9.40;71.20;;;;;;5033458;28;20037;-88
2023/12/20 05:03:11;;;;;;;7.50;2.45;;;9.40;71.20;;;;;;5057096;28;20350;-88
2023/12/20 05:05:38;;;;;;;12.05;2.72;;;9.50;71.30;;;;;;5057194;28;20033;-87
2023/12/20 05:08:04;;;;;;;9.43;2.88;;;9.40;71.20;;;;;;5042951;28;20096;-88
2023/12/20 05:10:30;;;;;;;8.40;2.28;;;9.40;71.20;;;;;;5027614;28;20067;-89
2023/12/20 05:12:57;;;;;;;10.20;2.60;;;9.50;71.30;;;;;;5045443;28;20033;-90
2023/12/20 05:15:23;;;;;;;13.48;3.55;;;9.50;71.30;;;;;;5059182;28;20025;-90
2023/12/20 05:17:49;;;;;;;12.07;2.60;;;9.50;71.30;;;;;;5043608;28;20033;-90
2023/12/20 05:20:15;;;;;;;12.20;3.22;;;9.50;71.40;;;;;;5059824;28;20052;-88
2023/12/20 05:22:41;;;;;;;12.88;3.55;;;9.50;71.30;;;;;;5031118;28;20195;-91
2023/12/20 05:25:07;;;;;;;10.48;2.30;;;9.50;71.50;;;;;;5049988;28;20029;-91
2023/12/20 05:27:34;;;;;;;9.48;2.22;;;9.50;71.30;;;;;;5050429;28;20139;-89
2023/12/20 05:30:00;;;;;;;8.23;3.00;;;9.60;72.00;;;;;;5040953;28;20436;-87
2023/12/20 05:32:26;;;;;;;11.68;2.33;;;9.50;71.40;;;;;;5038057;28;20071;-87
2023/12/20 05:34:52;;;;;;;8.27;2.85;;;9.50;71.30;;;;;;5024796;28;20424;-87
2023/12/20 05:37:18;;;;;;;13.70;3.33;;;9.60;71.50;;;;;;5045106;28;20037;-89
2023/12/20 05:39:46;;;;;;;10.70;2.55;;;9.60;71.50;;;;;;5042278;28;20051;-90
2023/12/20 05:42:12;;;;;;;12.30;3.78;;;9.60;71.50;;;;;;5037869;28;20025;-88
2023/12/20 05:44:38;;;;;;;13.00;2.85;;;9.60;71.50;;;;;;5047155;28;20059;-89
2023/12/20 05:47:04;;;;;;;6.95;2.83;;;9.60;71.50;;;;;;5071087;28;20057;-87
2023/12/20 05:49:31;;;;;;;12.23;2.95;;;9.60;71.60;;;;;;5044110;28;20124;-91
2023/12/20 05:51:57;;;;;;;8.95;2.30;;;9.60;71.50;;;;;;5039908;28;20443;-87
2023/12/20 05:54:25;;;;;;;7.95;2.47;;;9.60;71.50;;;;;;5033456;28;20078;-90
2023/12/20 05:56:51;;;;;;;10.70;2.88;;;9.60;71.50;;;;;;5040922;28;20045;-89
2023/12/20 05:59:17;;;;;;;9.60;2.80;;;9.60;71.50;;;;;;5032040;28;20086;-90
2023/12/20 06:01:43;;;;;;;13.57;3.17;;;9.60;71.50;;;;;;5044566;28;20129;-89
2023/12/20 06:04:09;;;;;;;13.32;3.92;;;9.60;71.50;;;;;;5055322;28;20021;-90
2023/12/20 06:06:44;;;;;;;12.32;2.70;;;9.60;71.50;;;;;;5026313;28;20048;-91
2023/12/20 06:09:15;;;;;;;7.80;2.30;;;9.60;71.60;;;;;;5038732;28;20528;-89
2023/12/20 06:11:41;;;;;;;7.45;2.20;;;9.60;71.50;;;;;;5032842;28;20048;-92
2023/12/20 06:14:07;;;;;;;10.65;3.92;;;9.60;72.10;;;;;;5024119;28;20028;-90
2023/12/20 06:16:32;;;;;;;9.27;2.47;;;9.60;71.50;;;;;;5062357;28;20282;-89
2023/12/20 06:18:58;;;;;;;9.90;2.42;;;9.60;71.60;;;;;;5059699;28;20025;-90
2023/12/20 06:21:24;;;;;;;8.27;1.92;;;9.60;71.60;;;;;;5058712;28;20100;-88
2023/12/20 06:23:52;;;;;;;7.20;1.83;;;9.60;71.60;;;;;;5044240;28;20028;-89
2023/12/20 06:26:18;;;;;;;6.75;1.83;;;9.50;71.40;;;;;;5062566;28;20037;-90
2023/12/20 06:28:44;;;;;;;10.18;2.95;;;9.60;71.60;;;;;;5043239;28;20135;-90
2023/12/20 06:31:10;;;;;;;11.73;1.95;;;9.60;71.60;;;;;;5072965;28;20307;-91
2023/12/20 06:33:36;;;;;;;8.50;2.92;;;9.60;71.60;;;;;;5056164;28;20029;-92
2023/12/20 06:36:03;;;;;;;5.80;2.20;;;9.50;71.50;;;;;;5064956;28;20646;-91
2023/12/20 06:38:30;;;;;;;10.00;3.25;;;9.50;71.50;;;;;;5044320;28;20025;-89
2023/12/20 06:40:57;;;;;;;8.88;2.28;;;9.60;71.70;;;;;;5055101;28;20021;-92
2023/12/20 06:43:23;;;;;;;9.73;2.08;;;9.50;71.50;;;;;;5051617;28;20540;-88
2023/12/20 06:45:48;;;;;;;7.93;2.58;;;9.60;71.70;;;;;;5032112;28;20036;-85
2023/12/20 06:48:14;;;;;;;9.68;2.45;;;9.50;71.50;;;;;;5037760;28;20064;-86
2023/12/20 06:50:40;;;;;;;9.20;1.92;;;9.50;71.60;;;;;;5046802;28;20045;-85
2023/12/20 06:53:08;;;;;;;9.98;2.83;;;9.60;71.80;;;;;;5063608;28;20041;-86
2023/12/20 06:55:37;;;;;;;11.00;2.72;;;9.60;71.90;;;;;;5035185;28;20102;-88
2023/12/20 06:58:04;;;;;;;16.40;3.20;;;9.60;71.90;;;;;;5043842;28;20248;-86
2023/12/20 07:00:32;;;;;;;14.90;3.85;;;9.70;72.10;;;;;;5050431;28;20025;-91
2023/12/20 07:02:58;;;;;;;10.60;2.90;;;9.60;71.90;;;;;;5047318;28;20380;-87
2023/12/20 07:05:25;;;;;;;11.45;4.05;;;9.70;72.20;;;;;;5054313;28;20025;-87
2023/12/20 07:07:52;;;;;;;11.05;3.05;;;9.70;72.20;;;;;;5045852;28;20045;-85
2023/12/20 07:10:22;;;;;;;16.50;2.72;;;9.60;72.00;;;;;;5030531;28;20030;-88
2023/12/20 07:12:55;;;;;;;12.85;3.38;;;9.70;72.30;;;;;;5049342;28;20037;-87
2023/12/20 07:15:22;;;;;;;9.63;2.63;;;9.60;72.10;;;;;;5031810;28;20258;-88
2023/12/20 07:17:48;;;;;;;10.95;3.08;;;9.70;72.30;;;;;;5014250;28;20411;-88
2023/12/20 07:20:14;;;;;;;13.25;4.43;;;9.70;72.30;;;;;;5032855;28;20139;-88
2023/12/20 07:22:40;;;;;;;11.23;3.17;;;9.70;72.40;;;;;;5013322;28;20065;-88
2023/12/20 07:25:07;;;;;;;8.25;2.45;;;9.70;72.40;;;;;;5027388;28;20075;-87
2023/12/20 07:27:33;;;;;;;9.63;3.20;;;9.70;72.50;;;;;;5032241;28;20072;-87
2023/12/20 07:29:59;;;;;;;15.63;3.20;;;9.70;72.50;;;;;;5018734;28;20028;-87
2023/12/20 07:32:25;;;;;;;8.95;2.53;;;9.70;72.50;;;;;;5014124;28;20208;-88
2023/12/20 07:34:52;;;;;;;14.57;2.95;;;9.70;72.50;;;;;;5018992;28;20126;-84
2023/12/20 07:37:17;;;;;;;10.00;3.85;;;9.80;72.70;;;;;;5047523;28;20106;-83
2023/12/20 07:39:43;;;;;;;11.45;2.85;;;9.80;72.70;;;;;;5032362;28;20396;-84
2023/12/20 07:42:10;;;;;;;11.85;2.35;;;9.80;72.80;;;;;;5044490;28;20029;-89
2023/12/20 07:44:36;;;;;;;16.23;2.50;;;9.80;72.70;;;;;;5032103;28;20060;-85
2023/12/20 07:47:02;;;;;;;8.15;2.10;;;9.80;72.80;;;;;;5028794;28;20452;-86
2023/12/20 07:49:28;;;;;;;14.15;2.40;;;9.80;72.70;;;;;;5029458;28;20036;-86
2023/12/20 07:51:54;;;;;;;9.35;2.33;;;9.80;72.70;;;;;;5033191;28;20411;-86
2023/12/20 07:54:21;;;;;;;7.78;2.40;;;9.90;72.90;;;;;;5036139;28;20029;-85
2023/12/20 07:56:49;;;;;;;9.63;1.92;;;9.90;72.90;;;;;;5024128;28;20044;-85
2023/12/20 07:59:15;;;;;;;9.10;2.42;;;9.90;72.90;;;;;;5024656;28;20108;-86
2023/12/20 08:01:42;;;;;;;8.90;1.90;;;9.90;72.90;;;;;;5031267;28;20118;-87
2023/12/20 08:04:08;;;;;;;8.02;2.33;;;9.90;72.90;;;;;;5039494;28;20022;-85
2023/12/20 08:06:34;;;;;;;9.80;2.00;;;9.90;72.90;;;;;;5028069;28;20045;-86
2023/12/20 08:08:59;;;;;;;12.02;1.70;;;9.90;72.90;;;;;;5028594;28;20025;-89
2023/12/20 08:11:25;;;;;;;8.60;2.22;;;9.90;72.80;;;;;;5029284;28;20516;-86
2023/12/20 08:13:52;;;;;;;7.50;2.10;;;10.00;73.00;;;;;;5028987;28;20223;-87
2023/12/20 08:16:18;;;;;;;6.38;2.17;;;9.90;72.80;;;;;;5044796;28;20416;-86
2023/12/20 08:18:44;;;;;;;7.82;1.80;;;10.00;73.00;;;;;;5042702;28;20048;-87
2023/12/20 08:21:11;;;;;;;6.18;1.70;;;10.00;72.90;;;;;;5023912;28;20062;-86
2023/12/20 08:23:37;;;;;;;11.60;2.38;;;9.90;72.80;;;;;;5031369;28;20056;-86
2023/12/20 08:26:07;;;;;;;6.32;2.08;;;10.00;72.90;;;;;;5033639;28;20335;-89
2023/12/20 08:28:36;;;;;;;6.72;2.08;;;10.00;72.90;;;;;;5040372;28;20032;-89
2023/12/20 08:31:02;;;;;;;8.52;1.85;;;10.00;72.90;;;;;;5033259;28;20440;-90
2023/12/20 08:33:29;;;;;;;7.47;1.55;;;10.00;72.90;;;;;;5032602;28;20518;-89
2023/12/20 08:35:55;;;;;;;11.25;2.22;;;10.00;72.90;;;;;;5035120;28;20122;-88
2023/12/20 08:38:21;;;;;;;8.95;1.75;;;10.00;72.90;;;;;;5053320;28;20040;-90
2023/12/20 08:40:48;;;;;;;11.05;1.88;;;10.00;72.90;;;;;;5037480;28;20360;-89
2023/12/20 08:43:14;;;;;;;6.35;1.83;;;10.00;72.80;;;;;;5046420;28;20272;-90
2023/12/20 08:45:42;;;;;;;5.38;1.70;;;10.10;73.00;;;;;;5040650;28;20361;-88
2023/12/20 08:48:08;;;;;;;10.00;1.92;;;10.10;72.90;;;;;;5031686;28;20060;-89
2023/12/20 08:50:35;;;;;;;6.78;1.85;;;10.10;72.90;;;;;;5040663;28;20116;-90
2023/12/20 08:53:03;;;;;;;5.88;2.00;;;10.10;72.90;;;;;;5033629;28;20072;-90
2023/12/20 08:55:30;;;;;;;6.47;1.58;;;10.20;73.00;;;;;;5060060;28;20492;-90
2023/12/20 08:57:56;;;;;;;4.53;1.60;;;10.20;73.00;;;;;;5020098;28;20044;-89
2023/12/20 09:00:25;;;;;;;5.38;1.60;;;10.30;73.10;;;;;;5039547;28;20025;-91
2023/12/20 09:02:54;;;;;;;8.55;1.50;;;10.30;73.00;;;;;;5035293;28;20132;-90
2023/12/20 09:05:20;;;;;;;8.73;1.80;;;10.40;73.20;;;;;;5041036;28;20027;-89
2023/12/20 09:07:48;;;;;;;5.95;1.77;;;10.40;73.10;;;;;;5055753;28;20051;-90
2023/12/20 09:10:15;;;;;;;6.72;1.90;;;10.50;73.20;;;;;;5033646;28;20033;-89
2023/12/20 09:12:42;;;;;;;7.82;3.40;;;10.50;73.20;;;;;;5023343;28;20051;-88
2023/12/20 09:15:08;;;;;;;5.10;2.03;;;10.60;73.30;;;;;;5022431;28;20097;-89
2023/12/20 09:17:34;;;;;;;9.13;2.00;;;10.60;73.30;;;;;;5055351;28;20033;-88
2023/12/20 09:20:02;;;;;;;9.15;2.35;;;10.60;73.20;;;;;;5039347;28;20115;-90
2023/12/20 09:22:29;;;;;;;7.95;1.63;;;10.60;73.20;;;;;;5036413;28;20037;-87
2023/12/20 09:24:58;;;;;;;7.55;1.73;;;10.70;73.40;;;;;;5037755;28;20040;-88
2023/12/20 09:27:23;;;;;;;3.95;1.80;;;10.70;73.40;;;;;;5041680;28;20045;-88
2023/12/20 09:29:49;;;;;;;6.60;1.58;;;10.70;73.30;;;;;;5024519;28;20029;-87
2023/12/20 09:32:17;;;;;;;5.68;2.17;;;10.70;73.30;;;;;;5058851;28;20033;-88
2023/12/20 09:34:44;;;;;;;5.57;1.58;;;10.70;73.20;;;;;;5047312;28;20123;-95
2023/12/20 09:37:12;;;;;;;7.28;1.88;;;10.70;73.20;;;;;;5053665;28;20028;-87
2023/12/20 09:39:38;;;;;;;8.60;3.28;;;10.70;73.20;;;;;;5039014;28;20056;-89
2023/12/20 09:42:07;;;;;;;9.48;1.98;;;10.80;73.40;;;;;;5026457;28;20116;-89
2023/12/20 09:44:40;;;;;;;7.30;1.90;;;10.80;73.40;;;;;;5050921;28;20208;-87
2023/12/20 09:47:06;;;;;;;5.45;1.80;;;10.80;73.40;;;;;;5054864;28;20647;-87
2023/12/20 09:49:33;;;;;;;8.90;1.92;;;10.80;73.40;;;;;;5051284;28;20703;-86
2023/12/20 09:52:01;;;;;;;5.25;2.25;;;11.00;73.80;;;;;;5037880;28;20037;-88
2023/12/20 09:54:29;;;;;;;9.38;2.65;;;11.00;73.80;;;;;;5034149;28;20422;-87
2023/12/20 09:56:55;;;;;;;9.73;2.20;;;11.10;74.00;;;;;;5033012;28;20430;-89
2023/12/20 09:59:21;;;;;;;5.55;2.03;;;11.10;73.90;;;;;;5035366;28;20567;-91
2023/12/20 10:01:48;;;;;;;8.38;2.30;;;11.20;74.00;;;;;;5018003;28;20044;-87
2023/12/20 10:04:19;;;;;;;5.15;2.85;;;11.30;74.20;;;;;;5022819;28;20151;-87
2023/12/20 10:06:46;;;;;;;6.68;1.85;;;11.30;74.20;;;;;;5036989;28;20040;-89
2023/12/20 10:09:13;;;;;;;7.38;1.55;;;11.40;74.40;;;;;;5032783;28;20024;-89
2023/12/20 10:11:42;;;;;;;5.05;1.75;;;11.60;75.00;;;;;;5040196;28;20036;-86
2023/12/20 10:14:11;;;;;;;4.60;1.15;;;11.80;75.30;;;;;;5051765;28;20032;-85
2023/12/20 10:16:37;;;;;;;6.85;1.80;;;12.00;75.40;;;;;;5061564;28;20136;-84
2023/12/20 10:19:04;;;;;;;6.63;1.42;;;12.10;75.10;;;;;;5026960;28;20041;-89
2023/12/20 10:21:30;;;;;;;8.57;1.48;;;12.20;75.00;;;;;;5014363;28;20044;-89
2023/12/20 10:23:57;;;;;;;3.63;1.13;;;12.30;74.90;;;;;;5035387;28;20029;-88
2023/12/20 10:26:25;;;;;;;5.40;2.03;;;12.30;74.80;;;;;;5034497;28;20255;-90
2023/12/20 10:28:59;;;;;;;4.60;1.38;;;12.40;74.90;;;;;;5025148;28;20033;-89
2023/12/20 10:31:32;;;;;;;3.72;1.52;;;12.40;74.80;;;;;;5024011;28;20026;-89
2023/12/20 10:34:01;;;;;;;;;;;12.40;74.70;;;;;;5042261;28;20112;-86
2023/12/20 10:36:29;;;;;;;3.90;1.77;;;12.40;74.60;;;;;;5031999;28;20012;-88
2023/12/20 10:38:57;;;;;;;8.25;1.92;;;12.50;74.70;;;;;;5018699;28;20029;-88
2023/12/20 10:41:30;;;;;;;5.88;1.67;;;12.40;74.50;;;;;;5041822;28;20034;-88
2023/12/20 10:44:02;;;;;;;9.27;2.13;;;12.40;74.50;;;;;;5030103;28;20110;-90
2023/12/20 10:46:30;;;;;;;3.90;1.65;;;12.40;74.50;;;;;;5041932;28;20455;-87
2023/12/20 10:48:57;;;;;;;6.68;2.08;;;12.50;74.60;;;;;;5013779;28;20040;-89
2023/12/20 10:51:26;;;;;;;6.95;2.08;;;12.50;74.60;;;;;;5036261;28;20643;-87
2023/12/20 10:53:54;;;;;;;5.88;2.75;;;12.50;74.50;;;;;;5046162;28;20071;-87
2023/12/20 10:56:21;;;;;;;5.65;1.95;;;12.50;74.40;;;;;;5023105;28;20025;-85
2023/12/20 10:58:49;;;;;;;8.88;2.55;;;12.50;74.40;;;;;;5036448;28;20036;-88
2023/12/20 11:01:20;;;;;;;5.45;1.85;;;12.50;74.30;;;;;;5032062;28;20549;-88
2023/12/20 11:03:51;;;;;;;5.60;1.83;;;12.60;74.40;;;;;;5020112;28;20040;-86
2023/12/20 11:06:42;;;;;;;9.93;1.95;;;12.60;74.40;;;;;;5048227;28;20660;-87
2023/12/20 11:09:24;;;;;;;7.47;2.17;;;12.70;74.50;;;;;;5025751;28;20051;-87
2023/12/20 11:12:21;;;;;;;3.33;1.42;;;12.80;74.40;;;;;;5049143;28;20131;-86
2023/12/20 11:14:50;;;;;;;5.18;1.67;;;12.80;74.10;;;;;;5032321;28;20463;-90
2023/12/20 11:17:18;;;;;;;6.03;1.48;;;12.90;74.10;;;;;;5030997;28;20075;-91
2023/12/20 11:19:57;;;;;;;7.30;2.08;;;12.90;74.00;;;;;;5030980;28;20033;-90
2023/12/20 11:22:30;;;;;;;4.28;1.30;;;13.00;74.10;;;;;;5046349;28;20029;-90
2023/12/20 11:25:08;;;;;;;4.80;1.40;;;13.00;73.90;;;;;;5037034;28;20068;-92
2023/12/20 11:27:35;;;;;;;3.30;1.40;;;13.00;73.80;;;;;;5047105;28;20057;-91
2023/12/20 11:30:07;;;;;;;4.82;1.25;;;13.10;73.90;;;;;;5046900;28;20389;-90
2023/12/20 11:32:37;;;;;;;7.13;1.47;;;13.10;73.80;;;;;;5034877;28;20409;-90
2023/12/20 11:35:10;;;;;;;5.30;2.70;;;13.10;73.70;;;;;;5021011;28;20461;-91
2023/12/20 11:37:37;;;;;;;;;;;13.10;73.70;;;;;;5038587;28;20033;-89
2023/12/20 11:40:07;;;;;;;8.63;2.08;;;13.10;73.60;;;;;;5028617;28;19966;-91
2023/12/20 11:42:48;;;;;;;8.38;1.80;;;13.20;73.70;;;;;;5042558;28;20131;-88
2023/12/20 11:45:17;;;;;;;6.13;1.42;;;13.20;73.70;;;;;;5045496;28;20029;-89
2023/12/20 11:47:49;;;;;;;4.45;2.00;;;13.20;73.60;;;;;;5039619;28;20139;-90
2023/12/20 11:50:20;;;;;;;3.42;1.45;;;13.30;73.70;;;;;;5039031;28;20033;-91
2023/12/20 11:52:46;;;;;;;6.13;1.10;;;13.30;73.60;;;;;;5036100;28;20041;-90
2023/12/20 11:55:12;;;;;;;5.53;1.10;;;13.30;73.50;;;;;;5056363;28;20055;-88
2023/12/20 11:57:39;;;;;;;5.00;1.45;;;13.40;73.50;;;;;;5033318;28;20039;-89
2023/12/20 12:00:06;;;;;;;3.13;1.13;;;13.40;73.40;;;;;;5032418;28;20136;-90
2023/12/20 12:02:39;;;;;;;2.58;1.20;;;13.50;73.40;;;;;;5041007;28;20033;-89
2023/12/20 12:05:06;;;;;;;7.40;1.77;;;13.50;73.20;;;;;;5036095;28;20042;-89
2023/12/20 12:07:34;;;;;;;8.30;1.25;;;13.60;73.30;;;;;;5018709;28;20036;-87
2023/12/20 12:10:00;;;;;;;5.18;2.45;;;13.60;73.20;;;;;;5012294;28;20033;-89
2023/12/20 12:12:29;;;;;;;6.15;1.50;;;13.60;73.10;;;;;;5031881;28;20041;-88
2023/12/20 12:14:57;;;;;;;4.90;1.52;;;13.70;73.10;;;;;;5058557;28;20034;-89
2023/12/20 12:17:25;;;;;;;6.75;2.28;;;13.70;73.10;;;;;;5048793;28;20082;-89
2023/12/20 12:20:05;;;;;;;6.60;1.52;;;13.70;73.00;;;;;;5050317;28;20344;-88
2023/12/20 12:22:32;;;;;;;2.72;1.13;;;13.70;72.80;;;;;;5056965;28;20071;-90
2023/12/20 12:25:12;;;;;;;3.63;1.30;;;13.80;73.00;;;;;;5054540;28;20021;-91
2023/12/20 12:27:40;;;;;;;6.05;1.45;;;13.80;72.80;;;;;;5058949;28;20064;-86
2023/12/20 12:30:09;;;;;;;5.97;1.35;;;13.90;72.90;;;;;;5072003;28;20041;-84
2023/12/20 12:32:36;;;;;;;4.03;1.80;;;13.90;72.80;;;;;;5053246;28;20057;-85
2023/12/20 12:35:09;;;;;;;6.78;2.80;;;14.00;72.90;;;;;;5047404;28;20041;-90
2023/12/20 12:37:38;;;;;;;7.63;2.28;;;14.00;72.70;;;;;;5029879;28;20067;-90
2023/12/20 12:40:06;;;;;;;8.70;2.10;;;14.00;72.60;;;;;;5039010;28;20033;-88
2023/12/20 12:42:33;;;;;;;4.40;1.40;;;14.00;72.50;;;;;;5028581;28;20076;-87
2023/12/20 12:44:59;;;;;;;7.78;1.42;;;14.10;72.60;;;;;;5010222;28;20037;-88
2023/12/20 12:47:25;;;;;;;5.72;1.52;;;14.10;72.60;;;;;;5050308;28;20345;-88
2023/12/20 12:49:53;;;;;;;3.78;1.35;;;14.10;72.50;;;;;;5024246;28;20346;-88